Time;durP1;ratioP1;P1;durP2;ratioP2;P2;SDS_P1;SDS_P2;PMS_P1;PMS_P2;Temp;Humidity;BMP_temperature;BMP_pressure;BME280_temperature;BME280_humidity;BME280_pressure;Samples;Min_cycle;Max_cycle;Signal;HPM_P1;HPM_P2
2023/12/21 00:01:20;;;;;;;2.57;1.97;;;;;;;;;;5053781;28;20219;-67
2023/12/21 00:03:47;;;;;;;1.97;1.87;;;;;;;;;;5050310;28;20214;-68
2023/12/21 00:06:14;;;;;;;1.70;1.60;;;;;;;;;;5056272;28;20198;-67
2023/12/21 00:08:41;;;;;;;2.50;1.80;;;;;;;;;;5051481;28;20215;-68
2023/12/21 00:11:08;;;;;;;1.93;1.83;;;;;;;;;;5051969;28;20196;-68
2023/12/21 00:13:35;;;;;;;1.97;1.67;;;;;;;;;;5055481;28;20483;-68
2023/12/21 00:16:03;;;;;;;1.97;1.87;;;;;;;;;;5054696;28;20200;-68
2023/12/21 00:18:31;;;;;;;1.90;1.80;;;;;;;;;;5053821;28;20199;-67
2023/12/21 00:20:58;;;;;;;1.77;1.50;;;;;;;;;;5055700;28;20220;-67
2023/12/21 00:23:25;;;;;;;2.07;1.80;;;;;;;;;;5055032;28;20200;-67
2023/12/21 00:25:52;;;;;;;2.20;1.60;;;;;;;;;;5051313;28;20203;-67
2023/12/21 00:28:19;;;;;;;1.70;1.60;;;;;;;;;;5050323;28;20222;-67
2023/12/21 00:30:46;;;;;;;1.47;1.37;;;;;;;;;;5053792;28;20196;-67
2023/12/21 00:33:15;;;;;;;1.50;1.40;;;;;;;;;;5054048;28;20200;-67
2023/12/21 00:35:41;;;;;;;1.93;1.50;;;;;;;;;;5051555;28;20233;-67
2023/12/21 00:38:08;;;;;;;1.27;1.27;;;;;;;;;;5053252;28;20282;-67
2023/12/21 00:40:35;;;;;;;1.30;1.20;;;;;;;;;;5052861;28;20227;-67
2023/12/21 00:43:03;;;;;;;1.77;1.43;;;;;;;;;;5049381;28;20208;-62
2023/12/21 00:45:30;;;;;;;1.10;1.10;;;;;;;;;;5059331;28;20214;-62
2023/12/21 00:47:57;;;;;;;1.73;1.13;;;;;;;;;;5052244;28;20200;-63
2023/12/21 00:50:26;;;;;;;1.00;1.00;;;;;;;;;;5053081;28;20196;-62
2023/12/21 00:52:53;;;;;;;1.00;1.00;;;;;;;;;;5052007;28;20219;-63
2023/12/21 00:55:20;;;;;;;1.13;1.00;;;;;;;;;;5054386;28;20206;-62
2023/12/21 00:57:47;;;;;;;0.90;0.90;;;;;;;;;;5051903;28;20200;-62
2023/12/21 01:00:15;;;;;;;1.37;1.27;;;;;;;;;;5051090;28;20371;-62
2023/12/21 01:02:42;;;;;;;0.90;0.90;;;;;;;;;;5053442;28;20207;-61
2023/12/21 01:05:09;;;;;;;1.13;1.07;;;;;;;;;;5053662;28;20208;-62
2023/12/21 01:07:37;;;;;;;0.97;0.97;;;;;;;;;;5056683;28;20234;-61
2023/12/21 01:10:05;;;;;;;1.10;1.10;;;;;;;;;;5056145;28;20210;-62
2023/12/21 01:12:32;;;;;;;1.30;1.20;;;;;;;;;;5051972;28;20200;-62
2023/12/21 01:15:00;;;;;;;1.40;1.30;;;;;;;;;;5056084;28;20298;-62
2023/12/21 01:17:27;;;;;;;2.50;1.87;;;;;;;;;;5052554;28;20199;-62
2023/12/21 01:19:54;;;;;;;1.67;1.03;;;;;;;;;;5057635;28;20203;-64
2023/12/21 01:22:21;;;;;;;1.20;1.20;;;;;;;;;;5054107;28;20218;-61
2023/12/21 01:24:50;;;;;;;1.10;1.00;;;;;;;;;;5061396;28;20207;-62
2023/12/21 01:27:17;;;;;;;1.13;1.13;;;;;;;;;;5055186;28;20203;-62
2023/12/21 01:29:44;;;;;;;1.20;1.20;;;;;;;;;;5055467;28;20199;-62
2023/12/21 01:32:11;;;;;;;1.00;1.00;;;;;;;;;;5059960;28;20198;-63
2023/12/21 01:34:38;;;;;;;1.17;1.10;;;;;;;;;;5048814;28;20234;-62
2023/12/21 01:37:05;;;;;;;1.03;1.00;;;;;;;;;;5051310;28;20200;-61
2023/12/21 01:39:32;;;;;;;1.00;1.00;;;;;;;;;;5049452;28;20192;-62
2023/12/21 01:42:01;;;;;;;1.00;1.00;;;;;;;;;;5049416;28;20225;-62
2023/12/21 01:44:28;;;;;;;1.10;1.10;;;;;;;;;;5053095;28;20219;-63
2023/12/21 01:46:55;;;;;;;0.90;0.90;;;;;;;;;;5051474;28;20257;-61
2023/12/21 01:49:23;;;;;;;1.13;1.10;;;;;;;;;;5054116;28;20212;-62
2023/12/21 01:51:49;;;;;;;0.90;0.90;;;;;;;;;;5054517;28;20202;-62
2023/12/21 01:54:17;;;;;;;1.00;0.90;;;;;;;;;;5051456;28;20203;-62
2023/12/21 01:56:44;;;;;;;0.80;0.80;;;;;;;;;;5054240;28;20202;-62
2023/12/21 01:59:13;;;;;;;0.90;0.90;;;;;;;;;;5055078;28;20200;-62
2023/12/21 02:01:40;;;;;;;1.03;1.00;;;;;;;;;;5048895;28;20228;-62
2023/12/21 02:04:07;;;;;;;1.17;1.07;;;;;;;;;;5050479;28;20211;-62
2023/12/21 02:06:34;;;;;;;0.80;0.80;;;;;;;;;;5054694;28;20203;-62
2023/12/21 02:09:02;;;;;;;0.90;0.90;;;;;;;;;;5049901;28;20414;-61
2023/12/21 02:11:29;;;;;;;1.43;0.90;;;;;;;;;;5050167;28;20195;-62
2023/12/21 02:13:56;;;;;;;1.30;0.87;;;;;;;;;;5052415;28;20206;-62
2023/12/21 02:16:27;;;;;;;1.33;0.80;;;;;;;;;;5051656;28;20228;-62
2023/12/21 02:18:55;;;;;;;0.87;0.87;;;;;;;;;;5050029;28;20200;-62
2023/12/21 02:21:23;;;;;;;0.90;0.90;;;;;;;;;;5054636;28;20215;-62
2023/12/21 02:23:51;;;;;;;1.00;1.00;;;;;;;;;;5053622;28;20213;-61
2023/12/21 02:26:20;;;;;;;1.00;1.00;;;;;;;;;;5053017;28;20199;-62
2023/12/21 02:28:47;;;;;;;1.00;1.00;;;;;;;;;;5048915;28;20207;-63
2023/12/21 02:31:14;;;;;;;1.87;1.00;;;;;;;;;;5049270;28;20199;-64
2023/12/21 02:33:41;;;;;;;0.97;0.97;;;;;;;;;;5049944;28;20210;-62
2023/12/21 02:36:08;;;;;;;0.90;0.90;;;;;;;;;;5052676;28;20231;-62
2023/12/21 02:38:36;;;;;;;1.13;1.10;;;;;;;;;;5051490;28;20200;-62
2023/12/21 02:41:03;;;;;;;0.93;0.93;;;;;;;;;;5045662;28;20216;-62
2023/12/21 02:43:31;;;;;;;1.00;1.00;;;;;;;;;;5048342;28;20230;-61
2023/12/21 02:45:58;;;;;;;1.20;1.20;;;;;;;;;;5048782;28;20204;-62
2023/12/21 02:48:25;;;;;;;1.03;0.90;;;;;;;;;;5045408;28;20209;-61
2023/12/21 02:50:52;;;;;;;1.17;1.17;;;;;;;;;;5052027;28;20281;-62
2023/12/21 02:53:20;;;;;;;1.00;1.00;;;;;;;;;;5051534;28;20210;-63
2023/12/21 02:55:47;;;;;;;1.10;1.00;;;;;;;;;;5050390;28;20200;-62
2023/12/21 02:58:14;;;;;;;1.00;1.00;;;;;;;;;;5050404;28;20200;-63
2023/12/21 03:00:42;;;;;;;1.00;1.00;;;;;;;;;;5055015;28;20219;-62
2023/12/21 03:03:09;;;;;;;1.00;1.00;;;;;;;;;;5054404;28;20234;-61
2023/12/21 03:05:36;;;;;;;1.07;1.03;;;;;;;;;;5052790;28;20199;-62
2023/12/21 03:08:04;;;;;;;1.10;1.10;;;;;;;;;;5052111;28;20254;-62
2023/12/21 03:10:31;;;;;;;1.00;1.00;;;;;;;;;;5055196;28;20203;-62
2023/12/21 03:12:58;;;;;;;1.00;1.00;;;;;;;;;;5057140;28;20195;-62
2023/12/21 03:15:25;;;;;;;0.90;0.90;;;;;;;;;;5057834;28;20234;-62
2023/12/21 03:17:54;;;;;;;1.10;1.10;;;;;;;;;;5055932;28;20204;-61
2023/12/21 03:20:21;;;;;;;1.10;1.00;;;;;;;;;;5054711;28;20226;-62
2023/12/21 03:22:48;;;;;;;1.00;1.00;;;;;;;;;;5052733;28;20226;-62
2023/12/21 03:25:15;;;;;;;0.83;0.83;;;;;;;;;;5054782;28;20234;-63
2023/12/21 03:27:42;;;;;;;0.90;0.90;;;;;;;;;;5057941;28;20207;-62
2023/12/21 03:30:11;;;;;;;1.00;1.00;;;;;;;;;;5056320;28;20206;-63
2023/12/21 03:32:38;;;;;;;0.90;0.90;;;;;;;;;;5055426;28;20257;-63
2023/12/21 03:35:07;;;;;;;0.87;0.80;;;;;;;;;;5060009;28;20330;-63
2023/12/21 03:37:34;;;;;;;1.07;1.00;;;;;;;;;;5060099;28;20210;-62
2023/12/21 03:40:01;;;;;;;0.80;0.80;;;;;;;;;;5056331;28;20199;-62
2023/12/21 03:42:28;;;;;;;1.00;1.00;;;;;;;;;;5054421;28;20219;-63
2023/12/21 03:44:55;;;;;;;1.60;1.00;;;;;;;;;;5054776;28;20222;-62
2023/12/21 03:47:23;;;;;;;2.93;0.83;;;;;;;;;;5053008;28;20203;-63
2023/12/21 03:49:50;;;;;;;1.67;0.90;;;;;;;;;;5048490;28;20208;-61
2023/12/21 03:52:18;;;;;;;0.63;0.63;;;;;;;;;;5060742;28;20238;-62
2023/12/21 03:54:45;;;;;;;0.80;0.80;;;;;;;;;;5054022;28;20195;-63
2023/12/21 03:57:12;;;;;;;0.90;0.90;;;;;;;;;;5053048;28;20272;-63
2023/12/21 03:59:39;;;;;;;0.80;0.80;;;;;;;;;;5056564;28;20227;-63
2023/12/21 04:02:07;;;;;;;0.90;0.90;;;;;;;;;;5055441;28;20223;-62
2023/12/21 04:04:34;;;;;;;0.90;0.90;;;;;;;;;;5050135;28;20198;-62
2023/12/21 04:07:01;;;;;;;1.07;1.00;;;;;;;;;;5057610;28;20203;-62
2023/12/21 04:09:29;;;;;;;0.93;0.93;;;;;;;;;;5053325;28;20208;-63
2023/12/21 04:11:56;;;;;;;1.00;1.00;;;;;;;;;;5053402;28;20192;-63
2023/12/21 04:14:23;;;;;;;0.90;0.90;;;;;;;;;;5056097;28;20203;-61
2023/12/21 04:16:50;;;;;;;0.90;0.90;;;;;;;;;;5057008;28;20203;-61
2023/12/21 04:19:18;;;;;;;0.90;0.90;;;;;;;;;;5061002;28;20210;-62
2023/12/21 04:21:45;;;;;;;0.90;0.90;;;;;;;;;;5054740;28;20310;-62
2023/12/21 04:24:12;;;;;;;0.80;0.80;;;;;;;;;;5049848;28;20214;-62
2023/12/21 04:26:41;;;;;;;0.90;0.90;;;;;;;;;;5059770;28;20206;-63
2023/12/21 04:29:08;;;;;;;0.80;0.80;;;;;;;;;;5053141;28;20222;-62
2023/12/21 04:31:37;;;;;;;0.90;0.80;;;;;;;;;;5048860;28;20222;-62
2023/12/21 04:34:05;;;;;;;0.67;0.67;;;;;;;;;;5053723;28;20207;-62
2023/12/21 04:36:32;;;;;;;0.60;0.60;;;;;;;;;;5052144;28;20199;-62
2023/12/21 04:38:59;;;;;;;0.50;0.50;;;;;;;;;;5051608;28;20215;-62
2023/12/21 04:41:26;;;;;;;0.53;0.53;;;;;;;;;;5052791;28;20227;-62
2023/12/21 04:43:55;;;;;;;0.50;0.50;;;;;;;;;;5056310;28;20207;-63
2023/12/21 04:46:22;;;;;;;0.63;0.63;;;;;;;;;;5052909;28;20214;-63
2023/12/21 04:48:49;;;;;;;2.60;0.60;;;;;;;;;;5057701;28;20299;-61
2023/12/21 04:51:16;;;;;;;0.60;0.60;;;;;;;;;;5056470;28;20261;-62
2023/12/21 04:53:43;;;;;;;0.50;0.50;;;;;;;;;;5050707;28;20207;-63
2023/12/21 04:56:11;;;;;;;0.50;0.50;;;;;;;;;;5057799;28;20208;-62
2023/12/21 04:58:38;;;;;;;0.50;0.50;;;;;;;;;;5049366;28;20200;-64
2023/12/21 05:01:07;;;;;;;0.70;0.70;;;;;;;;;;5058101;28;20341;-62
2023/12/21 05:03:35;;;;;;;0.80;0.80;;;;;;;;;;5050504;28;20208;-61
2023/12/21 05:06:02;;;;;;;0.67;0.67;;;;;;;;;;5051736;28;20206;-62
2023/12/21 05:08:29;;;;;;;0.80;0.80;;;;;;;;;;5052212;28;20241;-61
2023/12/21 05:10:57;;;;;;;0.70;0.70;;;;;;;;;;5057426;28;20207;-62
2023/12/21 05:13:24;;;;;;;0.67;0.67;;;;;;;;;;5052400;28;20195;-62
2023/12/21 05:15:51;;;;;;;0.70;0.70;;;;;;;;;;5051401;28;20203;-62
2023/12/21 05:18:19;;;;;;;1.20;0.50;;;;;;;;;;5051371;28;20203;-62
2023/12/21 05:20:46;;;;;;;0.70;0.70;;;;;;;;;;5049260;28;20200;-62
2023/12/21 05:23:13;;;;;;;0.90;0.90;;;;;;;;;;5052711;28;20257;-63
2023/12/21 05:25:41;;;;;;;1.00;0.90;;;;;;;;;;5053046;28;20203;-62
2023/12/21 05:28:08;;;;;;;1.03;1.03;;;;;;;;;;5049296;28;20210;-62
2023/12/21 05:30:35;;;;;;;0.77;0.77;;;;;;;;;;5056709;28;20211;-62
2023/12/21 05:33:02;;;;;;;0.60;0.60;;;;;;;;;;5051000;28;20196;-62
2023/12/21 05:35:31;;;;;;;1.13;0.80;;;;;;;;;;5045960;28;20324;-62
2023/12/21 05:37:58;;;;;;;1.70;0.67;;;;;;;;;;5049199;28;20207;-62
2023/12/21 05:40:26;;;;;;;1.10;0.90;;;;;;;;;;5049413;28;20302;-61
2023/12/21 05:42:53;;;;;;;0.63;0.63;;;;;;;;;;5051445;28;20218;-61
2023/12/21 05:45:20;;;;;;;0.73;0.73;;;;;;;;;;5050439;28;20199;-62
2023/12/21 05:47:47;;;;;;;1.07;0.70;;;;;;;;;;5049249;28;20317;-61
2023/12/21 05:50:14;;;;;;;0.60;0.60;;;;;;;;;;5047117;28;20207;-62
2023/12/21 05:52:43;;;;;;;0.80;0.80;;;;;;;;;;5052511;28;20203;-62
2023/12/21 05:55:15;;;;;;;0.80;0.80;;;;;;;;;;5053537;28;20235;-62
2023/12/21 05:57:42;;;;;;;0.90;0.90;;;;;;;;;;5051038;28;20235;-61
2023/12/21 06:00:09;;;;;;;0.80;0.80;;;;;;;;;;5051067;28;20207;-63
2023/12/21 06:02:36;;;;;;;1.90;0.90;;;;;;;;;;5054051;28;20218;-62
2023/12/21 06:05:04;;;;;;;0.90;0.90;;;;;;;;;;5055606;28;20532;-62
2023/12/21 06:07:31;;;;;;;1.40;0.90;;;;;;;;;;5047999;28;20196;-62
2023/12/21 06:09:59;;;;;;;1.00;1.00;;;;;;;;;;5062050;28;20206;-62
2023/12/21 06:12:26;;;;;;;1.00;1.00;;;;;;;;;;5048475;28;20289;-62
2023/12/21 06:14:53;;;;;;;0.80;0.80;;;;;;;;;;5048353;28;20294;-62
2023/12/21 06:17:20;;;;;;;0.80;0.80;;;;;;;;;;5052257;28;20206;-62
2023/12/21 06:19:48;;;;;;;0.83;0.83;;;;;;;;;;5050728;28;20203;-62
2023/12/21 06:22:16;;;;;;;0.90;0.90;;;;;;;;;;5051058;28;20230;-62
2023/12/21 06:24:43;;;;;;;0.93;0.93;;;;;;;;;;5048891;28;20260;-63
2023/12/21 06:27:11;;;;;;;1.20;1.20;;;;;;;;;;5056301;28;20229;-63
2023/12/21 06:29:38;;;;;;;0.90;0.90;;;;;;;;;;5053604;28;20203;-62
2023/12/21 06:32:06;;;;;;;1.40;1.07;;;;;;;;;;5048473;28;20294;-67
2023/12/21 06:34:33;;;;;;;1.20;1.20;;;;;;;;;;5055183;28;20239;-63
2023/12/21 06:37:03;;;;;;;1.30;1.20;;;;;;;;;;5053800;28;20270;-63
2023/12/21 06:39:31;;;;;;;1.40;1.30;;;;;;;;;;5053810;28;20208;-62
2023/12/21 06:41:58;;;;;;;1.07;1.07;;;;;;;;;;5059452;28;20223;-62
2023/12/21 06:44:26;;;;;;;1.10;1.00;;;;;;;;;;5068509;28;20203;-62
2023/12/21 06:46:53;;;;;;;1.00;1.00;;;;;;;;;;5046321;28;20199;-62
2023/12/21 06:49:20;;;;;;;1.20;1.20;;;;;;;;;;5051077;28;20290;-63
2023/12/21 06:51:47;;;;;;;1.60;1.50;;;;;;;;;;5053330;28;20207;-61
2023/12/21 06:54:15;;;;;;;1.40;1.23;;;;;;;;;;5050309;28;20199;-62
2023/12/21 06:56:42;;;;;;;1.00;1.00;;;;;;;;;;5049812;28;20201;-62
2023/12/21 06:59:09;;;;;;;0.87;0.87;;;;;;;;;;5051626;28;20261;-62
2023/12/21 07:01:37;;;;;;;0.83;0.83;;;;;;;;;;5051045;28;20209;-62
2023/12/21 07:04:04;;;;;;;1.10;1.00;;;;;;;;;;5055704;28;20203;-62
2023/12/21 07:06:32;;;;;;;1.10;1.10;;;;;;;;;;5050917;28;20206;-62
2023/12/21 07:08:59;;;;;;;1.00;1.00;;;;;;;;;;5055572;28;20218;-62
2023/12/21 07:11:26;;;;;;;0.90;0.90;;;;;;;;;;5050076;28;20204;-62
2023/12/21 07:13:54;;;;;;;1.37;1.27;;;;;;;;;;5055323;28;20210;-62
2023/12/21 07:16:23;;;;;;;1.27;1.27;;;;;;;;;;5052286;28;20248;-63
2023/12/21 07:18:51;;;;;;;1.10;1.10;;;;;;;;;;5050799;28;20229;-62
2023/12/21 07:21:18;;;;;;;1.50;1.40;;;;;;;;;;5057298;28;20208;-61
2023/12/21 07:23:45;;;;;;;2.40;1.40;;;;;;;;;;5044191;28;20219;-62
2023/12/21 07:26:12;;;;;;;1.20;1.10;;;;;;;;;;5049624;28;20200;-62
2023/12/21 07:28:40;;;;;;;1.57;1.50;;;;;;;;;;5049011;28;20207;-62
2023/12/21 07:31:07;;;;;;;1.83;1.73;;;;;;;;;;5048201;28;20226;-63
2023/12/21 07:33:35;;;;;;;1.63;1.53;;;;;;;;;;5050144;28;20207;-62
2023/12/21 07:36:07;;;;;;;1.50;1.40;;;;;;;;;;5050406;28;20277;-62
2023/12/21 07:38:34;;;;;;;1.17;1.10;;;;;;;;;;5051420;28;20239;-61
2023/12/21 07:41:01;;;;;;;0.97;0.97;;;;;;;;;;5059380;28;20211;-62
2023/12/21 07:43:28;;;;;;;0.80;0.80;;;;;;;;;;5056692;28;20219;-62
2023/12/21 07:45:56;;;;;;;1.10;1.00;;;;;;;;;;5055234;28;20211;-63
2023/12/21 07:48:23;;;;;;;0.90;0.90;;;;;;;;;;5058031;28;20265;-62
2023/12/21 07:50:50;;;;;;;1.00;0.90;;;;;;;;;;5071399;28;20211;-62
2023/12/21 07:53:18;;;;;;;2.50;1.00;;;;;;;;;;5059629;28;20210;-62
2023/12/21 07:55:45;;;;;;;0.80;0.80;;;;;;;;;;5047342;28;20200;-61
2023/12/21 07:58:13;;;;;;;0.80;0.80;;;;;;;;;;5058320;28;20213;-62
2023/12/21 08:00:40;;;;;;;0.83;0.70;;;;;;;;;;5055667;28;20218;-62
2023/12/21 08:03:08;;;;;;;0.80;0.80;;;;;;;;;;5053052;28;20221;-62
2023/12/21 08:05:36;;;;;;;0.70;0.70;;;;;;;;;;5057691;28;20226;-61
2023/12/21 08:08:03;;;;;;;0.60;0.60;;;;;;;;;;5063318;28;20229;-62
2023/12/21 08:10:32;;;;;;;0.70;0.70;;;;;;;;;;5060695;28;20211;-62
2023/12/21 08:12:59;;;;;;;2.23;0.97;;;;;;;;;;5054186;28;20275;-62
2023/12/21 08:15:26;;;;;;;0.60;0.60;;;;;;;;;;5055040;28;20239;-63
2023/12/21 08:17:55;;;;;;;0.60;0.60;;;;;;;;;;5053065;28;20196;-62
2023/12/21 08:20:23;;;;;;;0.50;0.50;;;;;;;;;;5053505;28;20203;-62
2023/12/21 08:22:50;;;;;;;0.57;0.57;;;;;;;;;;5058603;28;20219;-62
2023/12/21 08:25:17;;;;;;;0.83;0.57;;;;;;;;;;5061667;28;20199;-61
2023/12/21 08:27:45;;;;;;;0.40;0.40;;;;;;;;;;5057195;28;20211;-62
2023/12/21 08:30:13;;;;;;;0.47;0.47;;;;;;;;;;5061350;28;20221;-61
2023/12/21 08:32:40;;;;;;;0.50;0.50;;;;;;;;;;5053659;28;20207;-62
2023/12/21 08:35:07;;;;;;;0.67;0.63;;;;;;;;;;5054101;28;20247;-63
2023/12/21 08:37:35;;;;;;;0.40;0.40;;;;;;;;;;5056402;28;20216;-62
2023/12/21 08:40:02;;;;;;;0.40;0.40;;;;;;;;;;5054196;28;20195;-62
2023/12/21 08:42:30;;;;;;;0.40;0.40;;;;;;;;;;5046778;28;20229;-62
2023/12/21 08:44:59;;;;;;;0.30;0.30;;;;;;;;;;5053168;28;20226;-63
2023/12/21 08:47:26;;;;;;;0.50;0.50;;;;;;;;;;5052982;28;20225;-63
2023/12/21 08:49:53;;;;;;;0.47;0.47;;;;;;;;;;5060477;28;20257;-62
2023/12/21 08:52:21;;;;;;;0.50;0.50;;;;;;;;;;5062122;28;20211;-63
2023/12/21 08:54:48;;;;;;;0.90;0.73;;;;;;;;;;5052642;28;20199;-62
2023/12/21 08:57:15;;;;;;;1.10;0.90;;;;;;;;;;5057609;28;20209;-63
2023/12/21 08:59:43;;;;;;;1.10;1.03;;;;;;;;;;5038473;28;20216;-61
2023/12/21 09:02:13;;;;;;;0.60;0.40;;;;;;;;;;5050663;28;20223;-62
2023/12/21 09:04:40;;;;;;;0.63;0.47;;;;;;;;;;5048993;28;20227;-62
2023/12/21 09:07:07;;;;;;;0.30;0.30;;;;;;;;;;5051709;28;20210;-61
2023/12/21 09:09:34;;;;;;;0.27;0.27;;;;;;;;;;5050536;28;20218;-62
2023/12/21 09:12:01;;;;;;;0.80;0.20;;;;;;;;;;5051093;28;20203;-62
2023/12/21 09:14:28;;;;;;;0.60;0.60;;;;;;;;;;5046558;28;20204;-62
2023/12/21 09:16:58;;;;;;;0.40;0.40;;;;;;;;;;5049025;28;20239;-62
2023/12/21 09:19:27;;;;;;;0.70;0.70;;;;;;;;;;5050993;28;20204;-62
2023/12/21 09:21:54;;;;;;;1.87;1.63;;;;;;;;;;5055598;28;20254;-62
2023/12/21 09:24:21;;;;;;;1.60;0.80;;;;;;;;;;5051690;28;20208;-62
2023/12/21 09:26:48;;;;;;;0.40;0.40;;;;;;;;;;5048213;28;20210;-62
2023/12/21 09:29:15;;;;;;;0.50;0.50;;;;;;;;;;5049660;28;20212;-63
2023/12/21 09:31:42;;;;;;;0.23;0.23;;;;;;;;;;5055042;28;20206;-63
2023/12/21 09:34:11;;;;;;;0.23;0.23;;;;;;;;;;5053254;28;20207;-62
2023/12/21 09:36:39;;;;;;;0.20;0.20;;;;;;;;;;5051681;28;20207;-62
2023/12/21 09:39:07;;;;;;;1.47;0.30;;;;;;;;;;5053558;28;20203;-62
2023/12/21 09:41:34;;;;;;;0.47;0.30;;;;;;;;;;5051271;28;20206;-62
2023/12/21 09:44:02;;;;;;;0.20;0.20;;;;;;;;;;5051932;28;20211;-63
2023/12/21 09:46:33;;;;;;;0.27;0.27;;;;;;;;;;5053971;28;20206;-62
2023/12/21 09:49:00;;;;;;;1.83;0.40;;;;;;;;;;5046935;28;20199;-62
2023/12/21 09:51:28;;;;;;;0.30;0.30;;;;;;;;;;5050568;28;20206;-61
2023/12/21 09:53:57;;;;;;;0.63;0.30;;;;;;;;;;5052893;28;20195;-62
2023/12/21 09:56:24;;;;;;;0.40;0.40;;;;;;;;;;5051514;28;20204;-62
2023/12/21 09:58:52;;;;;;;0.30;0.30;;;;;;;;;;5047778;28;20207;-63
2023/12/21 10:01:19;;;;;;;0.40;0.40;;;;;;;;;;5049281;28;20195;-62
2023/12/21 10:03:46;;;;;;;0.37;0.20;;;;;;;;;;5057431;28;20222;-67
2023/12/21 10:06:13;;;;;;;0.40;0.40;;;;;;;;;;5052946;28;20199;-67
2023/12/21 10:08:41;;;;;;;0.70;0.50;;;;;;;;;;5042611;28;20199;-68
2023/12/21 10:11:10;;;;;;;0.40;0.40;;;;;;;;;;5051726;28;20239;-67
2023/12/21 10:13:38;;;;;;;1.13;0.30;;;;;;;;;;5047504;28;20288;-68
2023/12/21 10:16:05;;;;;;;0.30;0.30;;;;;;;;;;5048119;28;20273;-67
2023/12/21 10:18:34;;;;;;;0.23;0.23;;;;;;;;;;5049415;28;20516;-66
2023/12/21 10:21:01;;;;;;;0.30;0.30;;;;;;;;;;5050196;28;20227;-66
2023/12/21 10:23:28;;;;;;;0.30;0.30;;;;;;;;;;5042279;28;20348;-67
2023/12/21 10:25:56;;;;;;;0.30;0.30;;;;;;;;;;5046496;28;20265;-66
2023/12/21 10:28:24;;;;;;;0.50;0.50;;;;;;;;;;5052220;28;20261;-67
2023/12/21 10:30:55;;;;;;;0.40;0.40;;;;;;;;;;5054007;28;20240;-67
2023/12/21 10:33:22;;;;;;;0.37;0.37;;;;;;;;;;5052165;28;20199;-66
2023/12/21 10:35:53;;;;;;;0.57;0.20;;;;;;;;;;5050706;28;20235;-67
2023/12/21 10:38:21;;;;;;;0.70;0.70;;;;;;;;;;5049061;28;20294;-66
2023/12/21 10:40:49;;;;;;;0.33;0.30;;;;;;;;;;5046799;28;20246;-67
2023/12/21 10:43:17;;;;;;;0.53;0.53;;;;;;;;;;5051622;28;20222;-67
2023/12/21 10:45:46;;;;;;;0.30;0.30;;;;;;;;;;5054717;28;20208;-67
2023/12/21 10:48:15;;;;;;;0.37;0.37;;;;;;;;;;5061092;28;20199;-67
2023/12/21 10:50:43;;;;;;;0.30;0.30;;;;;;;;;;5040412;28;20213;-66
2023/12/21 10:53:12;;;;;;;0.63;0.40;;;;;;;;;;5045639;28;20290;-67
2023/12/21 10:55:39;;;;;;;0.40;0.40;;;;;;;;;;5045959;28;20203;-67
2023/12/21 10:58:07;;;;;;;0.53;0.40;;;;;;;;;;5052861;28;20242;-67
2023/12/21 11:00:34;;;;;;;0.77;0.50;;;;;;;;;;5044448;28;20250;-67
2023/12/21 11:03:07;;;;;;;0.40;0.30;;;;;;;;;;5051879;28;20203;-66
2023/12/21 11:05:35;;;;;;;0.60;0.50;;;;;;;;;;5048662;28;20442;-66
2023/12/21 11:08:03;;;;;;;0.50;0.50;;;;;;;;;;5049557;28;20207;-67
2023/12/21 11:10:32;;;;;;;0.20;0.20;;;;;;;;;;5053582;28;20195;-69
2023/12/21 11:12:59;;;;;;;0.43;0.40;;;;;;;;;;5055208;28;20218;-62
2023/12/21 11:15:26;;;;;;;0.30;0.30;;;;;;;;;;5052537;28;20230;-62
2023/12/21 11:17:55;;;;;;;0.57;0.50;;;;;;;;;;5051769;28;20248;-63
2023/12/21 11:20:24;;;;;;;0.63;0.63;;;;;;;;;;5058489;28;20192;-62
2023/12/21 11:22:53;;;;;;;0.60;0.60;;;;;;;;;;5049953;28;20255;-62
2023/12/21 11:25:22;;;;;;;0.60;0.60;;;;;;;;;;5050455;28;20269;-62
2023/12/21 11:27:50;;;;;;;0.40;0.40;;;;;;;;;;5050230;28;20484;-62
2023/12/21 11:30:18;;;;;;;0.40;0.30;;;;;;;;;;5052157;28;20235;-62
2023/12/21 11:32:47;;;;;;;0.43;0.30;;;;;;;;;;5052854;28;20214;-62
2023/12/21 11:35:21;;;;;;;0.40;0.30;;;;;;;;;;5049392;28;20239;-63
2023/12/21 11:37:54;;;;;;;0.30;0.30;;;;;;;;;;5049745;28;20199;-62
2023/12/21 11:40:22;;;;;;;0.10;0.10;;;;;;;;;;5050413;28;20253;-62
2023/12/21 11:42:49;;;;;;;0.20;0.20;;;;;;;;;;5051208;28;20208;-62
2023/12/21 11:45:23;;;;;;;0.77;0.33;;;;;;;;;;5060197;28;20311;-62
2023/12/21 11:47:51;;;;;;;0.20;0.20;;;;;;;;;;5062747;28;20199;-62
2023/12/21 11:50:20;;;;;;;0.33;0.20;;;;;;;;;;5055870;28;20210;-62
2023/12/21 11:52:47;;;;;;;0.17;0.17;;;;;;;;;;5051120;28;20204;-62
2023/12/21 11:55:25;;;;;;;0.30;0.27;;;;;;;;;;5052642;28;20203;-62
2023/12/21 11:58:07;;;;;;;0.40;0.40;;;;;;;;;;5050220;28;20316;-62
2023/12/21 12:00:35;;;;;;;0.10;0.10;;;;;;;;;;5050539;28;20265;-62
2023/12/21 12:03:03;;;;;;;0.17;0.17;;;;;;;;;;5050332;28;20204;-63
2023/12/21 12:05:30;;;;;;;0.20;0.20;;;;;;;;;;5051151;28;20254;-61
2023/12/21 12:07:57;;;;;;;0.10;0.10;;;;;;;;;;5052236;28;20215;-62
2023/12/21 12:10:26;;;;;;;0.10;0.10;;;;;;;;;;5050598;28;20216;-62
2023/12/21 12:12:54;;;;;;;0.10;0.10;;;;;;;;;;5055778;28;20203;-62
2023/12/21 12:15:21;;;;;;;0.97;0.07;;;;;;;;;;5051995;28;20199;-62
2023/12/21 12:17:48;;;;;;;0.10;0.10;;;;;;;;;;5051388;28;20207;-62
2023/12/21 12:20:15;;;;;;;0.10;0.10;;;;;;;;;;5053588;28;20230;-63
2023/12/21 12:22:43;;;;;;;0.20;0.20;;;;;;;;;;5051122;28;20191;-67
2023/12/21 12:25:11;;;;;;;0.10;0.10;;;;;;;;;;5049161;28;20310;-67
2023/12/21 12:27:40;;;;;;;0.10;0.10;;;;;;;;;;5058481;28;20207;-68
2023/12/21 12:30:07;;;;;;;0.20;0.20;;;;;;;;;;5052546;28;20238;-67
2023/12/21 12:32:35;;;;;;;0.00;0.00;;;;;;;;;;5054126;28;20269;-66
2023/12/21 12:35:02;;;;;;;0.90;0.30;;;;;;;;;;5054388;28;20288;-67
2023/12/21 12:37:29;;;;;;;0.20;0.20;;;;;;;;;;5050659;28;20213;-67
2023/12/21 12:39:57;;;;;;;0.00;0.00;;;;;;;;;;5052588;28;20195;-67
2023/12/21 12:42:24;;;;;;;0.10;0.10;;;;;;;;;;5047933;28;20196;-67
2023/12/21 12:44:53;;;;;;;0.13;0.13;;;;;;;;;;5054288;28;20219;-66
2023/12/21 12:47:20;;;;;;;0.33;0.20;;;;;;;;;;5051494;28;20207;-66
2023/12/21 12:49:48;;;;;;;0.10;0.10;;;;;;;;;;5051850;28;20207;-66
2023/12/21 12:52:17;;;;;;;0.10;0.10;;;;;;;;;;5048220;28;20203;-66
2023/12/21 12:54:44;;;;;;;0.10;0.10;;;;;;;;;;5050590;28;20196;-67
2023/12/21 12:57:12;;;;;;;0.20;0.20;;;;;;;;;;5052963;28;20218;-67
2023/12/21 12:59:39;;;;;;;0.17;0.17;;;;;;;;;;5050304;28;20204;-65
2023/12/21 13:02:08;;;;;;;0.10;0.10;;;;;;;;;;5045883;28;20234;-67
2023/12/21 13:04:35;;;;;;;0.20;0.10;;;;;;;;;;5051001;28;20243;-67
2023/12/21 13:07:02;;;;;;;0.60;0.20;;;;;;;;;;5056635;28;20218;-67
2023/12/21 13:09:30;;;;;;;0.00;0.00;;;;;;;;;;5053330;28;20203;-66
2023/12/21 13:11:59;;;;;;;0.30;0.30;;;;;;;;;;5050297;28;20203;-66
2023/12/21 13:14:26;;;;;;;0.50;0.20;;;;;;;;;;5051846;28;20199;-65
2023/12/21 13:16:54;;;;;;;0.30;0.20;;;;;;;;;;5057729;28;20237;-67
2023/12/21 13:19:23;;;;;;;0.10;0.10;;;;;;;;;;5056237;28;20317;-67
2023/12/21 13:21:50;;;;;;;0.10;0.10;;;;;;;;;;5058193;28;20269;-67
2023/12/21 13:24:19;;;;;;;0.57;0.10;;;;;;;;;;5047864;28;20482;-66
2023/12/21 13:26:47;;;;;;;0.20;0.20;;;;;;;;;;5049484;28;20206;-67
2023/12/21 13:29:14;;;;;;;0.17;0.17;;;;;;;;;;5053885;28;20225;-67
2023/12/21 13:31:41;;;;;;;0.63;0.30;;;;;;;;;;5060920;28;20207;-67
2023/12/21 13:34:08;;;;;;;0.83;0.50;;;;;;;;;;5052150;28;20230;-62
2023/12/21 13:36:37;;;;;;;0.20;0.20;;;;;;;;;;5057170;28;20239;-62
2023/12/21 13:39:04;;;;;;;0.30;0.20;;;;;;;;;;5045463;28;20204;-62
2023/12/21 13:41:32;;;;;;;0.10;0.10;;;;;;;;;;5050252;28;20203;-62
2023/12/21 13:43:59;;;;;;;0.30;0.30;;;;;;;;;;5052835;28;20229;-63
2023/12/21 13:46:28;;;;;;;1.50;0.30;;;;;;;;;;5053407;28;20207;-62
2023/12/21 13:48:55;;;;;;;0.43;0.40;;;;;;;;;;5051549;28;20211;-62
2023/12/21 13:51:22;;;;;;;0.50;0.50;;;;;;;;;;5053560;28;20215;-62
2023/12/21 13:53:51;;;;;;;0.40;0.40;;;;;;;;;;5055109;28;20210;-62
2023/12/21 13:56:19;;;;;;;1.07;0.43;;;;;;;;;;5055743;28;20225;-63
2023/12/21 13:58:46;;;;;;;0.20;0.20;;;;;;;;;;5051389;28;20286;-62
2023/12/21 14:01:13;;;;;;;0.83;0.37;;;;;;;;;;5057059;28;20206;-61
2023/12/21 14:03:40;;;;;;;1.87;0.60;;;;;;;;;;5051307;28;20204;-62
2023/12/21 14:06:16;;;;;;;1.43;0.63;;;;;;;;;;5051035;28;20215;-62
2023/12/21 14:08:43;;;;;;;1.10;0.43;;;;;;;;;;5051263;28;20239;-62
2023/12/21 14:11:12;;;;;;;0.60;0.60;;;;;;;;;;5053397;28;20207;-62
2023/12/21 14:13:39;;;;;;;1.13;0.57;;;;;;;;;;5055583;28;20230;-61
2023/12/21 14:16:07;;;;;;;0.53;0.53;;;;;;;;;;5048716;28;20196;-62
2023/12/21 14:18:34;;;;;;;1.97;0.70;;;;;;;;;;5063885;28;20206;-62
2023/12/21 14:21:02;;;;;;;0.77;0.50;;;;;;;;;;5046267;28;20295;-62
2023/12/21 14:23:29;;;;;;;1.73;0.80;;;;;;;;;;5046726;28;20206;-62
2023/12/21 14:25:56;;;;;;;1.43;0.70;;;;;;;;;;5048575;28;20222;-62
2023/12/21 14:28:25;;;;;;;1.30;0.80;;;;;;;;;;5045936;28;20203;-62
2023/12/21 14:30:52;;;;;;;2.67;1.00;;;;;;;;;;5050253;28;20214;-62
2023/12/21 14:33:19;;;;;;;1.77;0.90;;;;;;;;;;5046221;28;20206;-62
2023/12/21 14:35:46;;;;;;;2.87;1.03;;;;;;;;;;5045753;28;20234;-62
2023/12/21 14:38:13;;;;;;;1.80;0.80;;;;;;;;;;5050604;28;20203;-62
2023/12/21 14:40:41;;;;;;;3.17;1.00;;;;;;;;;;5050365;28;20207;-62
2023/12/21 14:43:08;;;;;;;2.03;1.13;;;;;;;;;;5047299;28;20229;-66
2023/12/21 14:45:36;;;;;;;2.50;0.97;;;;;;;;;;5050792;28;20245;-68